createdAt,value
2023-01-30T00:00:37.668Z,6.10
2023-01-30T00:03:06.221Z,6.10
2023-01-30T00:05:34.796Z,6.10
2023-01-30T00:08:03.354Z,6.10
2023-01-30T00:10:31.899Z,6.10
2023-01-30T00:13:00.446Z,6.10
2023-01-30T00:15:29.022Z,6.10
2023-01-30T00:17:57.546Z,6.10
2023-01-30T00:20:26.104Z,6.20
2023-01-30T00:23:00.858Z,6.20
2023-01-30T00:25:25.122Z,6.30
2023-01-30T00:30:22.119Z,6.30
2023-01-30T00:32:55.723Z,6.40
2023-01-30T00:35:25.977Z,6.40
2023-01-30T00:37:55.873Z,6.40
2023-01-30T00:40:24.972Z,6.40
2023-01-30T00:46:01.223Z,6.40
2023-01-30T00:48:29.880Z,6.50
2023-01-30T00:50:58.692Z,6.50
2023-01-30T00:53:27.335Z,6.50
2023-01-30T00:55:56.702Z,6.50
2023-01-30T00:58:26.890Z,6.90
2023-01-30T01:00:56.111Z,6.60
2023-01-30T01:03:24.713Z,6.60
2023-01-30T01:05:53.211Z,6.60
2023-01-30T01:08:22.590Z,6.60
2023-01-30T01:10:51.195Z,6.70
2023-01-30T01:13:19.742Z,6.70
2023-01-30T01:15:48.465Z,6.70
2023-01-30T01:18:17.066Z,6.70
2023-01-30T01:20:45.633Z,6.70
2023-01-30T01:23:14.173Z,6.70
2023-01-30T07:10:13.845Z,6.70
2023-01-30T07:12:42.408Z,7.90
2023-01-30T07:15:11.242Z,7.90
2023-01-30T07:17:42.603Z,8.00
2023-01-30T07:20:12.335Z,7.90
2023-01-30T07:22:40.892Z,8.00
2023-01-30T07:25:09.693Z,8.00
2023-01-30T07:27:38.271Z,8.00
2023-01-30T07:30:07.469Z,8.00
2023-01-30T07:32:38.949Z,8.00
2023-01-30T07:35:07.860Z,8.10
2023-01-30T07:37:36.432Z,8.00
2023-01-30T07:40:05.269Z,8.10
2023-01-30T07:42:33.797Z,8.00
2023-01-30T07:45:02.345Z,8.10
2023-01-30T08:39:25.572Z,8.10
2023-01-30T09:04:08.487Z,12.30
2023-01-30T09:06:37.172Z,15.00
2023-01-30T09:09:05.798Z,15.10
2023-01-30T09:11:34.355Z,15.30
2023-01-30T09:14:02.922Z,15.30
2023-01-30T09:16:31.533Z,15.10
2023-01-30T09:19:00.316Z,15.30
